Time;durP1;ratioP1;P1;durP2;ratioP2;P2;SDS_P1;SDS_P2;PMS_P1;PMS_P2;Temp;Humidity;BMP_temperature;BMP_pressure;BME280_temperature;BME280_humidity;BME280_pressure;Samples;Min_cycle;Max_cycle;Signal;HPM_P1;HPM_P2
2022/10/23 00:01:28;;;;;;;0.67;0.67;;;14.30;99.90;;;;;;5072886;28;20199;-61
2022/10/23 00:03:58;;;;;;;0.80;0.80;;;14.30;99.90;;;;;;5073629;28;20269;-61
2022/10/23 00:06:26;;;;;;;0.80;0.80;;;14.30;99.90;;;;;;5073390;28;20203;-61
2022/10/23 00:08:53;;;;;;;1.07;0.93;;;14.30;99.90;;;;;;5074193;28;20219;-61
2022/10/23 00:11:23;;;;;;;0.97;0.90;;;14.20;99.90;;;;;;5074946;28;20599;-61
2022/10/23 00:13:53;;;;;;;1.97;0.80;;;14.30;99.90;;;;;;5074281;28;20464;-64
2022/10/23 00:16:20;;;;;;;0.97;0.73;;;14.30;99.90;;;;;;5073474;28;20646;-61
2022/10/23 00:18:47;;;;;;;0.70;0.70;;;14.30;99.90;;;;;;5073316;28;20298;-60
2022/10/23 00:21:15;;;;;;;0.80;0.80;;;14.30;99.90;;;;;;5073781;28;20206;-61
2022/10/23 00:23:42;;;;;;;2.07;0.73;;;14.30;99.90;;;;;;5071847;28;20208;-61
2022/10/23 00:26:14;;;;;;;1.50;0.80;;;14.30;99.90;;;;;;5073426;28;20351;-61
2022/10/23 00:28:41;;;;;;;1.60;0.93;;;14.20;99.90;;;;;;5070339;28;20207;-61
2022/10/23 00:31:09;;;;;;;0.70;0.70;;;14.20;99.90;;;;;;5072897;28;20215;-62
2022/10/23 00:33:37;;;;;;;0.67;0.67;;;14.20;99.90;;;;;;5072419;28;20207;-63
2022/10/23 00:36:05;;;;;;;1.10;0.80;;;14.10;99.90;;;;;;5072904;28;20733;-62
2022/10/23 00:38:32;;;;;;;2.00;0.70;;;14.10;99.90;;;;;;5075121;28;20282;-62
2022/10/23 00:40:59;;;;;;;1.00;0.90;;;14.10;99.90;;;;;;5077025;28;20191;-61
2022/10/23 00:43:29;;;;;;;1.47;0.87;;;14.10;99.90;;;;;;5071911;28;20779;-61
2022/10/23 00:45:57;;;;;;;1.23;0.80;;;14.10;99.90;;;;;;5073713;28;20214;-62
2022/10/23 00:48:27;;;;;;;0.87;0.83;;;14.20;99.90;;;;;;5072538;28;20204;-61
2022/10/23 00:50:54;;;;;;;0.70;0.70;;;14.20;99.90;;;;;;5072995;28;20599;-61
2022/10/23 00:53:21;;;;;;;0.57;0.57;;;14.20;99.90;;;;;;5073346;28;20215;-61
2022/10/23 00:55:52;;;;;;;1.97;1.07;;;14.20;99.90;;;;;;5074645;28;20200;-60
2022/10/23 00:58:21;;;;;;;0.87;0.80;;;14.10;99.90;;;;;;5079859;28;20215;-61
2022/10/23 01:00:51;;;;;;;1.80;0.63;;;14.10;99.90;;;;;;5076455;28;20226;-63
2022/10/23 01:03:20;;;;;;;1.40;0.80;;;14.10;99.90;;;;;;5073788;28;20207;-61
2022/10/23 01:05:53;;;;;;;1.13;0.87;;;14.10;99.90;;;;;;5089772;28;20274;-65
2022/10/23 01:08:26;;;;;;;0.70;0.70;;;14.00;99.90;;;;;;5092575;28;20283;-62
2022/10/23 01:11:02;;;;;;;1.60;1.00;;;13.90;99.90;;;;;;5078778;28;20581;-64
2022/10/23 01:13:37;;;;;;;1.20;0.90;;;13.80;99.90;;;;;;5074833;28;20199;-62
2022/10/23 01:16:10;;;;;;;1.13;1.13;;;13.80;99.90;;;;;;5073951;28;20209;-62
2022/10/23 01:18:42;;;;;;;1.30;0.90;;;13.80;99.90;;;;;;5073895;28;20211;-63
2022/10/23 01:21:17;;;;;;;1.83;0.93;;;13.80;99.90;;;;;;5073187;28;20191;-64
2022/10/23 01:24:01;;;;;;;0.83;0.70;;;13.90;99.90;;;;;;5061608;28;20199;-63
2022/10/23 01:26:37;;;;;;;0.97;0.63;;;13.80;99.90;;;;;;5072984;28;20206;-61
2022/10/23 01:29:11;;;;;;;1.53;0.93;;;13.90;99.90;;;;;;5073046;28;20258;-61
2022/10/23 01:31:47;;;;;;;1.20;0.70;;;13.90;99.90;;;;;;5072395;28;20195;-61
2022/10/23 01:34:18;;;;;;;1.10;0.73;;;13.90;99.90;;;;;;5072442;28;20195;-63
2022/10/23 01:36:48;;;;;;;0.73;0.73;;;14.00;99.90;;;;;;5051468;28;20211;-61
2022/10/23 01:39:21;;;;;;;0.70;0.70;;;13.90;99.90;;;;;;5072588;28;20218;-61
2022/10/23 01:41:52;;;;;;;0.70;0.70;;;13.90;99.90;;;;;;5068327;28;20207;-63
2022/10/23 01:44:26;;;;;;;0.70;0.70;;;13.90;99.90;;;;;;5072459;28;20300;-61
2022/10/23 01:46:54;;;;;;;1.50;1.00;;;14.00;99.90;;;;;;5072312;28;20205;-60
2022/10/23 01:49:24;;;;;;;0.97;0.80;;;14.00;99.90;;;;;;5072552;28;20227;-63
2022/10/23 01:51:53;;;;;;;0.60;0.60;;;14.00;99.90;;;;;;5072225;28;20204;-65
2022/10/23 01:54:23;;;;;;;1.47;0.80;;;13.90;99.90;;;;;;5071866;28;20584;-63
2022/10/23 01:56:51;;;;;;;3.33;0.70;;;14.00;99.90;;;;;;5072367;28;20229;-62
2022/10/23 01:59:23;;;;;;;0.93;0.80;;;14.00;99.90;;;;;;5072308;28;20215;-60
2022/10/23 02:01:56;;;;;;;0.70;0.70;;;13.90;99.90;;;;;;5071646;28;20211;-61
2022/10/23 02:04:29;;;;;;;1.10;0.83;;;13.90;99.90;;;;;;5074163;28;20581;-62
2022/10/23 02:06:56;;;;;;;1.43;0.70;;;13.90;99.90;;;;;;5072364;28;20603;-61
2022/10/23 02:09:23;;;;;;;0.53;0.53;;;14.00;99.90;;;;;;5071893;28;20238;-62
2022/10/23 02:11:55;;;;;;;0.83;0.70;;;14.00;99.90;;;;;;5071662;28;20199;-61
2022/10/23 02:14:33;;;;;;;0.97;0.90;;;14.00;99.90;;;;;;5072045;28;20203;-61
2022/10/23 02:17:09;;;;;;;0.80;0.80;;;14.00;99.90;;;;;;5076070;28;20203;-61
2022/10/23 02:19:42;;;;;;;1.20;0.70;;;14.00;99.90;;;;;;5075499;28;20608;-61
2022/10/23 02:22:13;;;;;;;2.40;0.90;;;14.00;99.90;;;;;;5075613;28;20199;-63
2022/10/23 02:24:47;;;;;;;0.70;0.70;;;14.00;99.90;;;;;;5075269;28;20203;-63
2022/10/23 02:27:19;;;;;;;0.80;0.60;;;14.10;99.90;;;;;;5075504;28;20205;-62
2022/10/23 02:29:52;;;;;;;1.23;0.87;;;14.10;99.90;;;;;;5073273;28;20330;-62
2022/10/23 02:32:20;;;;;;;0.80;0.70;;;14.10;99.90;;;;;;5075334;28;20207;-62
2022/10/23 02:34:47;;;;;;;1.33;0.73;;;14.10;99.90;;;;;;5074899;28;20209;-62
2022/10/23 02:37:14;;;;;;;1.10;0.80;;;14.00;99.90;;;;;;5075137;28;20665;-62
2022/10/23 02:39:41;;;;;;;0.70;0.53;;;14.00;99.90;;;;;;5075022;28;20296;-62
2022/10/23 02:42:14;;;;;;;0.60;0.60;;;14.00;99.90;;;;;;5074668;28;20203;-62
2022/10/23 02:44:52;;;;;;;0.90;0.70;;;14.00;99.90;;;;;;5074981;28;20207;-63
2022/10/23 02:47:35;;;;;;;0.60;0.60;;;14.00;99.90;;;;;;5075448;28;20203;-63
2022/10/23 02:50:07;;;;;;;0.60;0.60;;;14.10;99.90;;;;;;5075291;28;20238;-62
2022/10/23 02:52:41;;;;;;;0.63;0.63;;;14.10;99.90;;;;;;5074062;28;20294;-62
2022/10/23 02:55:21;;;;;;;0.50;0.50;;;14.10;99.90;;;;;;5075023;28;20203;-62
2022/10/23 02:57:54;;;;;;;0.80;0.80;;;14.10;99.90;;;;;;5067583;28;20207;-62
2022/10/23 03:00:24;;;;;;;0.53;0.53;;;14.10;99.90;;;;;;5074831;28;20219;-63
2022/10/23 03:02:57;;;;;;;2.47;0.80;;;14.00;99.90;;;;;;5067520;28;20207;-62
2022/10/23 03:05:27;;;;;;;0.70;0.70;;;14.00;99.90;;;;;;5076252;28;20638;-64
2022/10/23 03:07:54;;;;;;;0.87;0.87;;;14.00;99.90;;;;;;5068926;28;20306;-64
2022/10/23 03:10:21;;;;;;;0.60;0.40;;;14.00;99.90;;;;;;5074968;28;20234;-63
2022/10/23 03:12:48;;;;;;;0.50;0.50;;;14.00;99.90;;;;;;5074548;28;20290;-63
2022/10/23 03:15:16;;;;;;;1.17;0.50;;;13.90;99.90;;;;;;5074358;28;20199;-63
2022/10/23 03:17:44;;;;;;;0.80;0.80;;;13.80;99.90;;;;;;5071413;28;20677;-62
2022/10/23 03:20:12;;;;;;;1.23;0.73;;;13.80;99.90;;;;;;5074770;28;20211;-63
2022/10/23 03:22:39;;;;;;;0.87;0.83;;;13.80;99.90;;;;;;5074063;28;20225;-63
2022/10/23 03:25:07;;;;;;;0.83;0.77;;;13.80;99.90;;;;;;5074256;28;20245;-62
2022/10/23 03:27:34;;;;;;;0.60;0.60;;;13.70;99.90;;;;;;5073402;28;20199;-62
2022/10/23 03:30:01;;;;;;;0.70;0.60;;;13.70;99.90;;;;;;5074248;28;20227;-62
2022/10/23 03:32:28;;;;;;;1.27;0.70;;;13.60;99.90;;;;;;5074182;28;20203;-64
2022/10/23 03:34:56;;;;;;;0.70;0.60;;;13.60;99.90;;;;;;5076435;28;20202;-63
2022/10/23 03:37:23;;;;;;;0.97;0.60;;;13.70;99.90;;;;;;5074204;28;20206;-64
2022/10/23 03:39:50;;;;;;;0.50;0.50;;;13.70;99.90;;;;;;5074068;28;20316;-63
2022/10/23 03:42:17;;;;;;;0.77;0.77;;;13.70;99.90;;;;;;5107674;22;20226;-70
2022/10/23 03:44:44;;;;;;;0.93;0.63;;;13.80;99.90;;;;;;5102763;28;20270;-70
2022/10/23 03:47:11;;;;;;;0.63;0.63;;;13.80;99.90;;;;;;5101374;28;20274;-70
2022/10/23 03:49:38;;;;;;;0.93;0.70;;;13.90;99.90;;;;;;5092212;28;20653;-70
2022/10/23 03:52:07;;;;;;;0.60;0.60;;;14.00;99.90;;;;;;5100703;28;20413;-69
2022/10/23 03:54:34;;;;;;;0.90;0.67;;;14.00;99.90;;;;;;5102186;28;20199;-69
2022/10/23 03:57:02;;;;;;;0.50;0.50;;;14.10;99.90;;;;;;5103488;28;20290;-70
2022/10/23 03:59:28;;;;;;;0.70;0.70;;;14.10;99.90;;;;;;5101347;28;20198;-69
2022/10/23 04:01:55;;;;;;;0.47;0.47;;;14.10;99.90;;;;;;5099205;28;20297;-68
2022/10/23 04:04:22;;;;;;;0.60;0.60;;;14.20;99.90;;;;;;5093249;28;20579;-69
2022/10/23 04:06:49;;;;;;;1.40;0.87;;;14.10;99.90;;;;;;5093653;28;20289;-69
2022/10/23 04:09:17;;;;;;;0.77;0.70;;;14.10;99.90;;;;;;5094633;28;20274;-69
2022/10/23 04:11:44;;;;;;;0.97;0.77;;;14.10;99.90;;;;;;5093911;28;20290;-69
2022/10/23 04:14:12;;;;;;;0.77;0.70;;;14.10;99.90;;;;;;5095325;28;20231;-70
2022/10/23 04:16:39;;;;;;;0.77;0.67;;;14.20;99.90;;;;;;5096859;28;20210;-68
2022/10/23 04:19:06;;;;;;;0.43;0.40;;;14.20;99.90;;;;;;5091833;28;20533;-67
2022/10/23 04:21:33;;;;;;;0.40;0.40;;;14.20;99.90;;;;;;5098098;28;20218;-68
2022/10/23 04:24:00;;;;;;;1.00;0.40;;;14.20;99.90;;;;;;5100616;28;20266;-69
2022/10/23 04:26:28;;;;;;;0.50;0.50;;;14.20;99.90;;;;;;5098179;28;20298;-70
2022/10/23 04:28:55;;;;;;;0.50;0.50;;;14.10;99.90;;;;;;5094701;28;20293;-69
2022/10/23 04:31:21;;;;;;;0.57;0.57;;;14.00;99.90;;;;;;5093623;28;20226;-69
2022/10/23 04:33:48;;;;;;;0.63;0.63;;;14.00;99.90;;;;;;5094171;28;20287;-70
2022/10/23 04:36:15;;;;;;;0.87;0.57;;;14.10;99.90;;;;;;5093611;28;20201;-69
2022/10/23 04:38:42;;;;;;;1.00;0.77;;;14.00;99.90;;;;;;5093045;28;20203;-69
2022/10/23 04:41:09;;;;;;;0.50;0.50;;;14.10;99.90;;;;;;5093949;28;20287;-69
2022/10/23 04:43:37;;;;;;;0.67;0.67;;;14.10;99.90;;;;;;5093411;28;20213;-69
2022/10/23 04:46:04;;;;;;;0.70;0.70;;;14.20;99.90;;;;;;5093315;28;20652;-68
2022/10/23 04:48:31;;;;;;;0.60;0.60;;;14.20;99.90;;;;;;5085154;28;20202;-69
2022/10/23 04:51:00;;;;;;;1.40;0.83;;;14.20;99.90;;;;;;5093176;28;20599;-68
2022/10/23 04:53:27;;;;;;;0.70;0.70;;;14.20;99.90;;;;;;5092974;28;20707;-68
2022/10/23 04:55:57;;;;;;;0.60;0.60;;;14.20;99.90;;;;;;5093046;28;20201;-68
2022/10/23 04:58:25;;;;;;;0.70;0.70;;;14.20;99.90;;;;;;5097310;28;20198;-68
2022/10/23 05:00:53;;;;;;;0.97;0.67;;;14.20;99.90;;;;;;5098108;28;20306;-67
2022/10/23 05:03:21;;;;;;;0.40;0.40;;;14.20;99.90;;;;;;5095209;28;20194;-71
2022/10/23 05:05:48;;;;;;;0.73;0.60;;;14.20;99.90;;;;;;5093900;28;20198;-67
2022/10/23 05:08:15;;;;;;;0.60;0.60;;;14.40;99.90;;;;;;5081645;28;20198;-68
2022/10/23 05:10:42;;;;;;;1.13;0.70;;;14.20;99.90;;;;;;5093201;28;20237;-68
2022/10/23 05:13:09;;;;;;;0.53;0.53;;;14.30;99.90;;;;;;5092826;28;20202;-67
2022/10/23 05:15:35;;;;;;;0.93;0.80;;;14.30;99.90;;;;;;5085069;28;20214;-68
2022/10/23 05:18:11;;;;;;;0.77;0.77;;;14.30;99.90;;;;;;5092812;28;20241;-67
2022/10/23 05:20:39;;;;;;;0.63;0.63;;;14.30;99.90;;;;;;5092593;28;20222;-68
2022/10/23 05:23:08;;;;;;;0.97;0.57;;;14.30;99.90;;;;;;5092353;28;20298;-69
2022/10/23 05:25:36;;;;;;;0.33;0.30;;;14.30;99.90;;;;;;5092789;28;20202;-69
2022/10/23 05:28:03;;;;;;;0.37;0.37;;;14.40;99.90;;;;;;5093333;28;20285;-68
2022/10/23 05:30:31;;;;;;;0.60;0.60;;;14.40;99.90;;;;;;5105712;28;20195;-68
2022/10/23 05:33:00;;;;;;;0.70;0.70;;;14.40;99.90;;;;;;5105949;28;20241;-67
2022/10/23 05:35:30;;;;;;;0.47;0.47;;;14.50;99.90;;;;;;5100175;28;20289;-67
2022/10/23 05:37:59;;;;;;;3.70;0.83;;;14.50;99.90;;;;;;5106978;28;20266;-68
2022/10/23 05:40:26;;;;;;;0.73;0.73;;;14.60;99.90;;;;;;5097399;28;20198;-68
2022/10/23 05:42:52;;;;;;;3.10;1.00;;;14.50;99.90;;;;;;5094063;28;20202;-67
2022/10/23 05:45:19;;;;;;;1.37;0.67;;;14.40;99.90;;;;;;5093650;28;20203;-69
2022/10/23 05:47:47;;;;;;;0.97;0.60;;;14.40;99.90;;;;;;5092528;28;20735;-70
2022/10/23 05:50:15;;;;;;;3.43;0.90;;;14.40;99.90;;;;;;5091810;28;20213;-68
2022/10/23 05:52:47;;;;;;;0.50;0.50;;;14.40;99.90;;;;;;5091634;28;20222;-69
2022/10/23 05:55:14;;;;;;;0.83;0.83;;;14.40;99.90;;;;;;5092041;28;20198;-68
2022/10/23 05:57:41;;;;;;;0.47;0.47;;;14.30;99.90;;;;;;5092082;28;20290;-69
2022/10/23 06:00:09;;;;;;;0.70;0.70;;;14.30;99.90;;;;;;5092726;28;20294;-68
2022/10/23 06:02:36;;;;;;;0.73;0.53;;;14.40;99.90;;;;;;5091729;28;20215;-69
2022/10/23 06:05:03;;;;;;;0.70;0.63;;;14.30;99.90;;;;;;5092201;28;20282;-68
2022/10/23 06:07:30;;;;;;;0.57;0.50;;;14.30;99.90;;;;;;5093920;28;20285;-67
2022/10/23 06:09:58;;;;;;;0.40;0.40;;;14.30;99.90;;;;;;5093760;28;20205;-68
2022/10/23 06:12:25;;;;;;;0.63;0.63;;;14.20;99.90;;;;;;5083938;28;20309;-68
2022/10/23 06:14:52;;;;;;;0.90;0.87;;;14.20;99.90;;;;;;5091755;28;20559;-69
2022/10/23 06:17:19;;;;;;;1.13;0.60;;;14.10;99.90;;;;;;5091678;28;20206;-67
2022/10/23 06:19:46;;;;;;;0.77;0.70;;;14.10;99.90;;;;;;5091958;28;20206;-68
2022/10/23 06:22:13;;;;;;;1.00;0.97;;;14.20;99.90;;;;;;5084737;28;20524;-69
2022/10/23 06:24:39;;;;;;;1.30;0.90;;;14.10;99.90;;;;;;5091797;28;20567;-68
2022/10/23 06:27:08;;;;;;;0.53;0.53;;;14.10;99.90;;;;;;5092068;28;20290;-68
2022/10/23 06:29:34;;;;;;;0.93;0.70;;;14.10;99.90;;;;;;5093040;28;20199;-68
2022/10/23 06:32:01;;;;;;;1.00;0.60;;;14.00;99.90;;;;;;5092249;28;20232;-68
2022/10/23 06:34:28;;;;;;;0.57;0.57;;;14.00;99.90;;;;;;5093560;28;20312;-69
2022/10/23 06:36:55;;;;;;;0.70;0.70;;;14.00;99.90;;;;;;5093043;28;20279;-67
2022/10/23 06:39:22;;;;;;;0.80;0.80;;;13.90;99.90;;;;;;5095506;28;20201;-68
2022/10/23 06:41:49;;;;;;;1.83;0.63;;;14.00;99.90;;;;;;5097875;28;20242;-67
2022/10/23 06:44:17;;;;;;;1.03;0.60;;;13.90;99.90;;;;;;5092871;28;20297;-67
2022/10/23 06:46:45;;;;;;;1.20;1.13;;;13.90;99.90;;;;;;5087247;28;20207;-67
2022/10/23 06:49:14;;;;;;;1.70;1.60;;;13.90;99.90;;;;;;5092435;28;20199;-67
2022/10/23 06:51:40;;;;;;;0.90;0.90;;;13.90;99.90;;;;;;5084402;28;20219;-68
2022/10/23 06:54:07;;;;;;;0.60;0.60;;;14.00;99.90;;;;;;5092175;28;20213;-69
2022/10/23 06:56:34;;;;;;;0.60;0.60;;;13.90;99.90;;;;;;5092539;28;20203;-67
2022/10/23 06:59:01;;;;;;;0.77;0.57;;;14.00;99.90;;;;;;5093794;28;20195;-68
2022/10/23 07:01:29;;;;;;;1.50;0.60;;;14.00;99.90;;;;;;5095182;28;20214;-68
2022/10/23 07:03:56;;;;;;;0.60;0.60;;;14.10;99.90;;;;;;5098150;28;20666;-68
2022/10/23 07:06:23;;;;;;;0.87;0.57;;;14.20;99.90;;;;;;5108578;28;20285;-67
2022/10/23 07:08:51;;;;;;;1.00;0.60;;;14.20;99.90;;;;;;5113832;28;20223;-66
2022/10/23 07:11:18;;;;;;;0.43;0.43;;;14.30;99.90;;;;;;5114907;28;20685;-67
2022/10/23 07:13:45;;;;;;;0.60;0.60;;;14.30;99.90;;;;;;5102929;28;20230;-67
2022/10/23 07:16:14;;;;;;;1.30;0.70;;;14.30;99.90;;;;;;5096425;28;20225;-68
2022/10/23 07:18:42;;;;;;;1.07;0.87;;;14.40;99.90;;;;;;5095250;28;20310;-67
2022/10/23 07:21:09;;;;;;;2.00;0.90;;;14.40;99.90;;;;;;5095007;28;20214;-67
2022/10/23 07:23:36;;;;;;;1.27;0.77;;;14.50;99.90;;;;;;5094404;28;20333;-68
2022/10/23 07:26:05;;;;;;;0.67;0.63;;;14.50;99.90;;;;;;5094720;28;20548;-68
2022/10/23 07:28:32;;;;;;;0.70;0.70;;;14.60;99.90;;;;;;5095080;28;20203;-69
2022/10/23 07:31:00;;;;;;;0.60;0.60;;;14.70;99.90;;;;;;5094843;28;20219;-67
2022/10/23 07:33:26;;;;;;;0.67;0.60;;;14.80;99.90;;;;;;5094906;28;20603;-67
2022/10/23 07:35:55;;;;;;;0.63;0.50;;;15.00;99.90;;;;;;5094768;28;20210;-67
2022/10/23 07:38:22;;;;;;;0.83;0.83;;;15.00;99.90;;;;;;5094466;28;20690;-68
2022/10/23 07:40:48;;;;;;;0.40;0.40;;;15.20;99.90;;;;;;5094519;28;20298;-68
2022/10/23 07:43:17;;;;;;;1.27;0.73;;;15.30;99.90;;;;;;5095825;28;20213;-69
2022/10/23 07:45:46;;;;;;;1.60;0.50;;;15.30;99.90;;;;;;5096238;28;20638;-67
2022/10/23 07:48:12;;;;;;;0.40;0.40;;;15.30;99.90;;;;;;5095707;28;20199;-67
2022/10/23 07:50:39;;;;;;;1.70;0.70;;;15.30;99.90;;;;;;5097103;28;20249;-68
2022/10/23 07:53:11;;;;;;;0.80;0.57;;;15.40;99.90;;;;;;5094987;28;20559;-70
2022/10/23 07:55:38;;;;;;;0.50;0.50;;;15.40;99.90;;;;;;5094869;28;20207;-69
2022/10/23 07:58:04;;;;;;;0.47;0.47;;;15.50;99.90;;;;;;5091969;28;20222;-67
2022/10/23 08:00:31;;;;;;;0.77;0.77;;;15.50;99.90;;;;;;5093721;28;20286;-69
2022/10/23 08:02:58;;;;;;;0.97;0.70;;;15.80;99.90;;;;;;5094104;28;20205;-67
2022/10/23 08:05:25;;;;;;;0.70;0.70;;;15.90;99.90;;;;;;5091603;28;20208;-67
2022/10/23 08:07:52;;;;;;;0.60;0.60;;;16.20;99.90;;;;;;5093793;28;20566;-68
2022/10/23 08:10:20;;;;;;;0.47;0.47;;;16.30;99.90;;;;;;5093777;28;20294;-68
2022/10/23 08:12:47;;;;;;;0.50;0.50;;;16.40;99.90;;;;;;5094826;28;20214;-68
2022/10/23 08:15:13;;;;;;;1.10;0.80;;;16.50;99.90;;;;;;5092291;28;20282;-68
2022/10/23 08:17:40;;;;;;;0.37;0.37;;;16.70;99.90;;;;;;5095502;28;20207;-67
2022/10/23 08:20:08;;;;;;;0.70;0.60;;;16.90;99.90;;;;;;5093754;28;20286;-68
2022/10/23 08:22:36;;;;;;;0.57;0.57;;;17.10;99.90;;;;;;5094084;28;20221;-68
2022/10/23 08:25:02;;;;;;;2.10;0.90;;;17.40;99.90;;;;;;5095840;28;20198;-67
2022/10/23 08:27:31;;;;;;;0.70;0.70;;;17.40;99.90;;;;;;5095170;28;20198;-68
2022/10/23 08:29:58;;;;;;;0.70;0.50;;;17.50;99.90;;;;;;5094807;28;20194;-69
2022/10/23 08:32:28;;;;;;;0.60;0.60;;;17.60;99.90;;;;;;5092835;28;20218;-68
2022/10/23 08:34:55;;;;;;;0.53;0.53;;;17.80;99.90;;;;;;5093243;28;20199;-68
2022/10/23 08:37:21;;;;;;;0.70;0.70;;;17.80;99.90;;;;;;5093647;28;20202;-68
2022/10/23 08:39:48;;;;;;;0.83;0.83;;;18.00;99.90;;;;;;5092349;28;20547;-68
2022/10/23 08:42:20;;;;;;;0.93;0.60;;;18.10;99.90;;;;;;5093620;28;20264;-69
2022/10/23 08:44:57;;;;;;;1.47;0.60;;;18.30;99.90;;;;;;5094737;28;20194;-68
2022/10/23 08:47:29;;;;;;;0.77;0.77;;;18.40;99.90;;;;;;5092425;28;20198;-69
2022/10/23 08:50:00;;;;;;;0.50;0.50;;;18.50;99.90;;;;;;5088950;28;20574;-68
2022/10/23 08:52:44;;;;;;;0.83;0.70;;;18.70;99.90;;;;;;5099869;28;20233;-68
2022/10/23 08:55:17;;;;;;;0.70;0.70;;;18.70;99.90;;;;;;5100628;28;20195;-68
2022/10/23 08:57:49;;;;;;;0.40;0.40;;;18.70;99.90;;;;;;5098915;28;20263;-69
2022/10/23 09:00:18;;;;;;;0.50;0.50;;;18.80;99.90;;;;;;5099248;28;20205;-67
2022/10/23 09:02:46;;;;;;;0.40;0.40;;;18.90;99.90;;;;;;5092873;28;20198;-68
2022/10/23 09:05:18;;;;;;;0.60;0.60;;;19.00;99.90;;;;;;5093264;28;20284;-69
2022/10/23 09:07:59;;;;;;;0.73;0.60;;;19.10;99.90;;;;;;5088542;28;20194;-68
2022/10/23 09:10:39;;;;;;;0.50;0.50;;;19.20;99.90;;;;;;5092911;28;20205;-67
2022/10/23 09:13:34;;;;;;;0.60;0.43;;;19.40;99.90;;;;;;5089514;28;20245;-68
2022/10/23 09:16:09;;;;;;;0.70;0.70;;;19.50;99.90;;;;;;5087053;28;20190;-68
2022/10/23 09:18:38;;;;;;;0.60;0.60;;;19.70;99.90;;;;;;5097052;28;20198;-67
2022/10/23 09:21:09;;;;;;;0.60;0.60;;;19.80;99.90;;;;;;5109065;28;20285;-69
2022/10/23 09:23:36;;;;;;;1.37;0.60;;;19.90;99.90;;;;;;5103206;28;20259;-67
2022/10/23 09:26:11;;;;;;;0.30;0.30;;;19.90;99.90;;;;;;5104445;28;20262;-67
2022/10/23 09:28:46;;;;;;;0.30;0.30;;;20.00;99.90;;;;;;5096441;28;20237;-68
2022/10/23 09:31:15;;;;;;;1.43;0.70;;;20.00;99.90;;;;;;5092241;28;20218;-69
2022/10/23 09:33:52;;;;;;;0.50;0.50;;;20.00;99.90;;;;;;5092240;28;20221;-67
2022/10/23 09:36:23;;;;;;;0.50;0.50;;;19.90;99.90;;;;;;5092325;28;20202;-67
2022/10/23 09:38:52;;;;;;;0.40;0.40;;;20.00;99.90;;;;;;5092349;28;20209;-67
2022/10/23 09:41:21;;;;;;;0.80;0.80;;;20.00;99.90;;;;;;5091669;28;20325;-68
2022/10/23 09:44:00;;;;;;;0.57;0.40;;;19.90;99.90;;;;;;5092141;28;20661;-68
2022/10/23 09:46:39;;;;;;;0.60;0.60;;;20.00;99.90;;;;;;5092351;28;20202;-67
2022/10/23 09:49:06;;;;;;;0.73;0.73;;;20.10;99.90;;;;;;5087026;28;20198;-67
2022/10/23 09:51:33;;;;;;;0.40;0.40;;;20.10;99.90;;;;;;5093065;28;20286;-68
2022/10/23 09:54:01;;;;;;;0.50;0.50;;;20.40;99.90;;;;;;5091966;28;20586;-68
2022/10/23 09:56:31;;;;;;;0.50;0.50;;;20.60;99.90;;;;;;5100200;28;20569;-69
2022/10/23 09:59:00;;;;;;;0.70;0.70;;;20.80;99.90;;;;;;5099100;28;20203;-71
2022/10/23 10:01:29;;;;;;;1.40;0.70;;;20.80;99.90;;;;;;5093449;28;20215;-67
2022/10/23 10:03:57;;;;;;;0.90;0.90;;;21.00;99.90;;;;;;5096933;28;20285;-67
2022/10/23 10:06:26;;;;;;;0.80;0.80;;;20.90;99.90;;;;;;5093276;28;20281;-68
2022/10/23 10:08:56;;;;;;;0.73;0.60;;;20.90;99.90;;;;;;5092536;28;20198;-68
2022/10/23 10:11:30;;;;;;;0.60;0.60;;;20.90;99.90;;;;;;5092187;28;20305;-68
2022/10/23 10:14:18;;;;;;;1.07;0.77;;;20.90;99.90;;;;;;5092430;28;20315;-67
2022/10/23 10:16:51;;;;;;;0.60;0.60;;;20.90;99.90;;;;;;5091751;28;20202;-69
2022/10/23 10:19:32;;;;;;;1.00;1.00;;;20.90;99.90;;;;;;5092201;28;20198;-67
2022/10/23 10:22:08;;;;;;;1.30;0.67;;;20.70;99.90;;;;;;5084992;28;20226;-68
2022/10/23 10:24:42;;;;;;;0.50;0.50;;;20.50;99.90;;;;;;5091575;28;20206;-68
2022/10/23 10:27:20;;;;;;;0.50;0.50;;;20.50;99.90;;;;;;5085517;28;20199;-69
2022/10/23 10:30:01;;;;;;;0.60;0.60;;;20.40;99.90;;;;;;5089816;28;20287;-67
2022/10/23 10:32:40;;;;;;;2.00;0.60;;;20.30;99.90;;;;;;5092088;28;20708;-67
2022/10/23 10:35:23;;;;;;;1.27;0.80;;;20.30;99.90;;;;;;5091974;28;20217;-67
2022/10/23 10:38:05;;;;;;;0.43;0.43;;;20.30;99.90;;;;;;5097214;28;20205;-68
2022/10/23 10:40:35;;;;;;;0.60;0.60;;;20.30;99.90;;;;;;5096745;28;20203;-69
2022/10/23 10:43:17;;;;;;;0.50;0.50;;;20.40;99.90;;;;;;5093345;28;20213;-68
2022/10/23 10:45:47;;;;;;;0.80;0.70;;;20.40;99.90;;;;;;5094602;28;20205;-68
2022/10/23 10:48:29;;;;;;;0.77;0.77;;;20.50;99.90;;;;;;5095597;28;20286;-69
2022/10/23 10:51:02;;;;;;;0.70;0.70;;;20.50;99.90;;;;;;5092987;28;20226;-68
2022/10/23 10:53:39;;;;;;;0.70;0.70;;;20.60;99.90;;;;;;5099229;28;20302;-69
2022/10/23 10:56:11;;;;;;;0.60;0.60;;;20.70;99.90;;;;;;5101422;28;20287;-67
2022/10/23 10:58:42;;;;;;;0.70;0.70;;;20.70;99.90;;;;;;5096086;28;20724;-68
2022/10/23 11:01:17;;;;;;;0.70;0.70;;;20.70;99.90;;;;;;5093437;28;20233;-69
2022/10/23 11:03:50;;;;;;;0.70;0.70;;;20.80;99.90;;;;;;5094556;28;20226;-69
2022/10/23 11:06:22;;;;;;;0.70;0.70;;;20.80;99.90;;;;;;5095563;28;20245;-68
2022/10/23 11:08:49;;;;;;;0.73;0.73;;;20.80;99.90;;;;;;5093791;28;20230;-68
2022/10/23 11:11:21;;;;;;;0.77;0.77;;;20.90;99.90;;;;;;5096706;28;20257;-69
2022/10/23 11:13:50;;;;;;;0.60;0.60;;;21.10;99.90;;;;;;5094701;28;20226;-66
2022/10/23 11:16:22;;;;;;;1.03;1.03;;;21.20;99.90;;;;;;5091761;28;20198;-68
2022/10/23 11:19:00;;;;;;;1.00;1.00;;;21.20;99.90;;;;;;5094518;28;20198;-67
2022/10/23 11:21:34;;;;;;;0.75;0.75;;;21.10;99.90;;;;;;5092052;28;20605;-67
2022/10/23 11:24:34;;;;;;;0.93;0.93;;;21.10;99.90;;;;;;5102308;28;20650;-69
2022/10/23 11:27:21;;;;;;;0.70;0.70;;;21.00;99.90;;;;;;5100367;28;20206;-68
2022/10/23 11:30:12;;;;;;;0.60;0.60;;;20.90;99.90;;;;;;5092599;28;20199;-68
2022/10/23 11:33:05;;;;;;;0.60;0.60;;;20.90;99.90;;;;;;5093355;28;20681;-68
2022/10/23 11:35:59;;;;;;;0.73;0.73;;;21.00;99.90;;;;;;5094831;28;20290;-68
2022/10/23 11:38:30;;;;;;;0.97;0.77;;;21.00;99.90;;;;;;5095783;28;20198;-68
2022/10/23 11:41:00;;;;;;;0.63;0.63;;;21.10;99.90;;;;;;5095479;28;20233;-69
2022/10/23 11:43:30;;;;;;;1.13;0.90;;;21.20;99.90;;;;;;5094790;28;20203;-68
2022/10/23 11:45:57;;;;;;;0.90;0.60;;;21.30;99.90;;;;;;5093983;28;20230;-67
2022/10/23 11:48:36;;;;;;;0.60;0.60;;;21.30;99.90;;;;;;5092683;28;20195;-68
2022/10/23 11:51:04;;;;;;;1.03;0.80;;;21.40;99.90;;;;;;5094902;28;20214;-68
2022/10/23 11:53:40;;;;;;;1.03;1.03;;;21.30;99.90;;;;;;5094915;28;20230;-67
2022/10/23 11:56:25;;;;;;;1.20;1.20;;;21.40;99.90;;;;;;5094735;28;20205;-69
2022/10/23 11:58:53;;;;;;;0.60;0.60;;;21.40;99.90;;;;;;5087025;28;20195;-67
2022/10/23 12:01:30;;;;;;;0.53;0.53;;;21.30;99.90;;;;;;5093925;28;20218;-68
2022/10/23 12:04:00;;;;;;;0.70;0.70;;;21.30;99.90;;;;;;5089922;28;20278;-68
2022/10/23 12:06:29;;;;;;;0.50;0.50;;;21.20;99.90;;;;;;5093650;28;20203;-69
2022/10/23 12:09:03;;;;;;;1.63;0.80;;;21.20;99.90;;;;;;5098338;28;20209;-67
2022/10/23 12:11:44;;;;;;;0.67;0.67;;;21.10;99.90;;;;;;5094370;28;20253;-68
2022/10/23 12:14:29;;;;;;;0.53;0.53;;;21.10;99.90;;;;;;5086409;28;20298;-68
2022/10/23 12:16:56;;;;;;;0.80;0.80;;;21.10;99.90;;;;;;5094193;28;20202;-67
2022/10/23 12:19:24;;;;;;;0.67;0.50;;;21.10;99.90;;;;;;5095293;28;20309;-68
2022/10/23 12:21:53;;;;;;;0.53;0.53;;;21.00;99.90;;;;;;5094346;28;20231;-69
2022/10/23 12:24:41;;;;;;;0.50;0.50;;;21.00;99.90;;;;;;5092962;28;20202;-68
2022/10/23 12:27:30;;;;;;;0.70;0.70;;;21.10;99.90;;;;;;5090029;28;20209;-66
2022/10/23 12:30:12;;;;;;;0.67;0.67;;;21.00;99.90;;;;;;5091090;28;20233;-66
2022/10/23 12:33:00;;;;;;;0.60;0.60;;;21.10;99.90;;;;;;5091724;28;20265;-66
2022/10/23 12:36:03;;;;;;;0.60;0.60;;;21.20;99.90;;;;;;5076253;28;20203;-67
2022/10/23 12:38:30;;;;;;;0.70;0.70;;;21.30;99.90;;;;;;5091563;28;20198;-68
2022/10/23 12:41:06;;;;;;;0.60;0.60;;;21.50;99.90;;;;;;5092255;28;20594;-66
2022/10/23 12:43:36;;;;;;;0.70;0.70;;;21.50;99.90;;;;;;5092832;28;20628;-67
2022/10/23 12:46:07;;;;;;;0.53;0.53;;;21.50;99.90;;;;;;5091037;28;20194;-67
2022/10/23 12:48:34;;;;;;;0.80;0.80;;;21.20;99.90;;;;;;5092639;28;20686;-68
2022/10/23 12:51:01;;;;;;;1.07;0.80;;;21.10;99.90;;;;;;5090948;28;20327;-69
2022/10/23 12:53:28;;;;;;;0.73;0.73;;;21.00;99.90;;;;;;5090686;28;20261;-69
2022/10/23 12:56:00;;;;;;;0.60;0.60;;;21.00;99.90;;;;;;5087509;28;20260;-67
2022/10/23 12:58:30;;;;;;;0.50;0.50;;;21.10;99.90;;;;;;5090904;28;20203;-68
2022/10/23 13:00:59;;;;;;;0.70;0.67;;;21.20;99.90;;;;;;5094172;28;20229;-67
2022/10/23 13:03:28;;;;;;;0.63;0.63;;;21.30;99.90;;;;;;5090867;28;20199;-66
2022/10/23 13:05:58;;;;;;;1.90;1.80;;;21.30;99.90;;;;;;5092666;28;20201;-67